PADL/DLG METAR and TAF weather

Enter ICAO airport designator
Station Type Date Time Source
PADL METAR 2020/01/22 17:56 UTC NOAA

PADL 221756Z 00000KT 10SM CLR M25/M28 A2985 RMK AO2 SLP113 T12501278 11167 21250 53023


Station Type Date Time Source
PADL Decoded METAR 2020/01/22 17:56 UTC NOAA

Dillingham, Dillingham Airport, AK, United States (PADL) 59-03N 158-31W 29M
Jan 22, 2020 - 12:56 PM EST / 2020.01.22 1756 UTC
Wind: Calm:0
Visibility: 10 mile(s):0
Sky conditions: clear
Temperature: -13.0 F (-25.0 C)
Dew Point: -18.0 F (-27.8 C)
Relative Humidity: 77%
Pressure (altimeter): 29.85 in. Hg (1010 hPa)
Pressure tendency: 0.07 inches (2.3 hPa) higher than three hours ago
ob: PADL 221756Z 00000KT 10SM CLR M25/M28 A2985 RMK AO2 SLP113 T12501278 11167 21250 53023
cycle: 18

Station Type Date Time Source
PADL TAF 2020/01/22 18:24 UTC NOAA

TAF PADL 221722Z 2218/2318 VRB03KT P6SM SKC
FM230800 VRB03KT P6SM OVC025
FM231300 35004KT P6SM SCT050

Example: see airport list